createdAt,value
2018-02-10T00:01:56.843Z,39.90
2018-02-10T00:04:24.354Z,41.13
2018-02-10T00:06:53.807Z,38.55
2018-02-10T00:09:29.323Z,37.88
2018-02-10T00:11:57.553Z,33.83
2018-02-10T00:14:25.208Z,40.33
2018-02-10T00:16:52.729Z,34.95
2018-02-10T00:19:20.194Z,40.53
2018-02-10T00:21:47.667Z,44.78
2018-02-10T00:24:15.136Z,42.58
2018-02-10T00:26:42.622Z,41.58
2018-02-10T00:29:10.089Z,47.05
2018-02-10T00:31:37.572Z,43.63
2018-02-10T00:34:05.859Z,49.63
2018-02-10T00:36:34.107Z,45.38
2018-02-10T00:39:09.361Z,39.67
2018-02-10T00:41:36.817Z,38.20
2018-02-10T00:44:04.317Z,44.33
2018-02-10T00:46:31.777Z,38.80
2018-02-10T00:48:59.268Z,42.62
2018-02-10T00:51:37.337Z,39.95
2018-02-10T00:56:58.684Z,48.25
2018-02-10T00:59:26.156Z,50.67
2018-02-10T01:01:53.630Z,51.13
2018-02-10T01:04:21.098Z,51.53
2018-02-10T01:06:48.576Z,51.70
2018-02-10T01:09:19.254Z,52.38
2018-02-10T01:11:46.721Z,47.53
2018-02-10T01:14:14.200Z,49.95
2018-02-10T01:16:48.343Z,36.05
2018-02-10T01:19:25.187Z,42.22
2018-02-10T01:21:52.647Z,35.83
2018-02-10T01:24:20.121Z,44.92
2018-02-10T01:26:47.610Z,41.25
2018-02-10T01:32:13.819Z,35.38
2018-02-10T01:34:41.299Z,36.97
2018-02-10T01:37:09.238Z,41.55
2018-02-10T01:39:36.746Z,40.22
2018-02-10T01:42:04.234Z,41.00
2018-02-10T01:44:31.730Z,36.05
2018-02-10T01:46:59.969Z,35.95
2018-02-10T01:49:27.442Z,38.33
2018-02-10T01:51:54.906Z,35.75
2018-02-10T01:54:22.386Z,39.10
2018-02-10T01:56:49.858Z,35.75
2018-02-10T01:59:17.330Z,39.10
2018-02-10T02:01:44.789Z,39.67
2018-02-10T02:04:12.257Z,37.47
2018-02-10T02:06:39.729Z,37.67
2018-02-10T02:09:07.217Z,37.97
2018-02-10T02:11:34.670Z,45.35
2018-02-10T02:14:02.918Z,47.58
2018-02-10T02:16:30.468Z,50.55
2018-02-10T02:18:57.920Z,47.25
2018-02-10T02:21:25.398Z,49.08
2018-02-10T02:23:52.868Z,48.45
2018-02-10T02:26:20.331Z,46.97
2018-02-10T02:28:47.839Z,42.13
2018-02-10T02:31:15.319Z,44.20
2018-02-10T02:33:42.803Z,45.15
2018-02-10T02:36:10.272Z,40.10
2018-02-10T02:38:37.743Z,41.35
2018-02-10T02:41:05.989Z,39.65
2018-02-10T02:43:33.460Z,39.95
2018-02-10T02:46:00.939Z,34.65
2018-02-10T02:48:29.178Z,34.70
2018-02-10T02:50:56.666Z,46.25
2018-02-10T02:53:24.892Z,41.92
2018-02-10T02:55:52.362Z,36.83
2018-02-10T02:58:19.836Z,40.15
2018-02-10T03:00:47.303Z,43.60
2018-02-10T03:03:14.800Z,43.72
2018-02-10T03:05:42.265Z,34.65
2018-02-10T03:08:09.750Z,35.22
2018-02-10T03:10:37.703Z,35.25
2018-02-10T03:13:05.671Z,33.65
2018-02-10T03:15:33.652Z,36.22
2018-02-10T03:18:01.140Z,40.47
2018-02-10T03:20:28.608Z,36.88
2018-02-10T03:22:56.108Z,31.52
2018-02-10T03:25:23.602Z,34.50
2018-02-10T03:27:51.061Z,37.13
2018-02-10T03:30:18.541Z,42.60
2018-02-10T03:32:46.020Z,37.00
2018-02-10T03:35:14.265Z,37.45
2018-02-10T03:37:41.758Z,33.00
2018-02-10T03:40:09.754Z,40.55
2018-02-10T03:42:37.238Z,29.00
2018-02-10T03:45:04.705Z,38.58
2018-02-10T03:47:32.186Z,38.88
2018-02-10T03:49:59.650Z,38.00
2018-02-10T03:52:27.894Z,37.78
2018-02-10T03:54:55.375Z,30.48
2018-02-10T03:57:22.850Z,41.10
2018-02-10T03:59:51.079Z,33.55
2018-02-10T04:02:18.561Z,33.97
2018-02-10T04:04:46.024Z,39.10
2018-02-10T04:07:13.510Z,35.13
2018-02-10T04:09:41.030Z,35.05
2018-02-10T04:12:08.517Z,33.40
2018-02-10T04:14:35.996Z,38.90
2018-02-10T04:17:03.502Z,40.22
2018-02-10T04:19:31.196Z,35.10
2018-02-10T04:22:00.120Z,36.75
2018-02-10T04:24:27.628Z,29.98
2018-02-10T04:26:55.099Z,35.35
2018-02-10T04:29:23.349Z,35.80
2018-02-10T04:31:50.822Z,33.85
2018-02-10T04:34:18.298Z,32.22
2018-02-10T04:36:46.540Z,38.67
2018-02-10T04:39:14.022Z,40.50
2018-02-10T04:41:42.264Z,37.92
2018-02-10T04:44:09.748Z,37.60
2018-02-10T04:46:37.207Z,35.25
2018-02-10T04:49:04.689Z,33.53
2018-02-10T04:51:32.183Z,34.50
2018-02-10T04:53:59.663Z,35.90
2018-02-10T04:56:27.129Z,36.28
2018-02-10T04:58:54.602Z,34.20
2018-02-10T05:01:22.832Z,35.90
2018-02-10T05:03:50.306Z,36.22
2018-02-10T05:06:17.779Z,35.20
2018-02-10T05:08:45.296Z,36.35
2018-02-10T05:11:12.758Z,37.95
2018-02-10T05:13:40.228Z,35.67
2018-02-10T05:16:08.286Z,40.95
2018-02-10T05:18:35.759Z,38.90
2018-02-10T05:21:03.233Z,42.67
2018-02-10T05:23:30.689Z,33.35
2018-02-10T05:25:58.162Z,33.50
2018-02-10T05:28:25.632Z,41.88
2018-02-10T05:30:53.872Z,36.08
2018-02-10T05:33:21.340Z,28.45
2018-02-10T05:35:48.811Z,28.20
2018-02-10T05:38:16.287Z,27.45
2018-02-10T05:40:44.555Z,28.17
2018-02-10T05:43:12.019Z,27.75
2018-02-10T05:45:40.262Z,27.83
2018-02-10T05:48:07.739Z,22.17
2018-02-10T05:50:35.215Z,21.30
2018-02-10T05:53:03.449Z,26.77
2018-02-10T05:55:31.617Z,23.10
2018-02-10T05:57:59.570Z,23.25
2018-02-10T06:00:27.258Z,24.08
2018-02-10T06:02:54.741Z,21.10
2018-02-10T06:05:22.223Z,19.87
2018-02-10T06:07:50.458Z,20.83
2018-02-10T06:10:17.926Z,24.63
2018-02-10T06:12:45.402Z,23.02
2018-02-10T06:15:16.579Z,22.35
2018-02-10T06:17:44.060Z,24.10
2018-02-10T06:20:11.537Z,24.70
2018-02-10T06:22:39.016Z,30.02
2018-02-10T06:25:06.503Z,22.33
2018-02-10T06:27:33.982Z,30.92
2018-02-10T06:30:01.470Z,29.95
2018-02-10T06:32:28.945Z,29.70
2018-02-10T06:34:56.419Z,32.30
2018-02-10T06:37:24.680Z,32.30
2018-02-10T06:39:52.199Z,30.95
2018-02-10T06:42:19.707Z,31.02
2018-02-10T06:44:47.929Z,25.58
2018-02-10T06:47:15.419Z,35.35
2018-02-10T06:49:42.897Z,29.50
2018-02-10T06:52:10.359Z,32.80
2018-02-10T06:54:38.577Z,31.60
2018-02-10T06:57:06.040Z,33.97
2018-02-10T06:59:33.501Z,29.30
2018-02-10T07:02:01.001Z,28.20
2018-02-10T07:04:28.464Z,22.98
2018-02-10T07:06:56.726Z,23.92
2018-02-10T07:09:24.200Z,24.42
2018-02-10T07:11:52.810Z,28.40
2018-02-10T07:14:20.274Z,20.80
2018-02-10T07:16:47.750Z,17.42
2018-02-10T07:19:21.040Z,17.00
2018-02-10T07:21:49.540Z,13.20
2018-02-10T07:24:20.048Z,13.57
2018-02-10T07:26:47.531Z,14.43
2018-02-10T07:29:14.989Z,15.77
2018-02-10T07:31:42.475Z,15.63
2018-02-10T07:34:09.945Z,17.55
2018-02-10T07:36:39.008Z,12.40
2018-02-10T07:39:06.486Z,18.60
2018-02-10T07:41:34.400Z,15.57
2018-02-10T07:44:01.914Z,15.75
2018-02-10T07:46:30.159Z,18.02
2018-02-10T07:48:57.656Z,19.92
2018-02-10T07:51:25.903Z,19.65
2018-02-10T07:54:04.254Z,23.83
2018-02-10T07:56:31.744Z,23.02
2018-02-10T07:58:59.277Z,31.92
2018-02-10T08:01:27.516Z,24.12
2018-02-10T08:03:54.998Z,28.55
2018-02-10T08:06:23.235Z,25.42
2018-02-10T08:08:51.034Z,23.48
2018-02-10T08:11:19.273Z,26.23
2018-02-10T08:13:46.782Z,22.73
2018-02-10T08:16:15.015Z,22.23
2018-02-10T08:18:42.492Z,23.73
2018-02-10T08:21:09.990Z,23.50
2018-02-10T08:23:37.495Z,25.17
2018-02-10T08:26:04.975Z,25.30
2018-02-10T08:28:32.460Z,23.80
2018-02-10T08:30:59.941Z,23.87
2018-02-10T08:33:27.421Z,17.92
2018-02-10T08:35:54.892Z,25.17
2018-02-10T08:38:23.398Z,20.80
2018-02-10T08:40:50.871Z,18.35
2018-02-10T08:43:18.347Z,20.08
2018-02-10T08:45:45.839Z,18.90
2018-02-10T08:48:13.316Z,19.65
2018-02-10T08:50:40.782Z,21.73
2018-02-10T08:53:08.259Z,22.62
2018-02-10T08:55:36.482Z,22.70
2018-02-10T08:58:04.004Z,18.48
2018-02-10T09:00:31.460Z,19.83
2018-02-10T09:02:59.188Z,22.25
2018-02-10T09:05:27.441Z,23.17
2018-02-10T09:07:54.896Z,22.05
2018-02-10T09:10:22.372Z,20.90
2018-02-10T09:13:15.651Z,24.67
2018-02-10T09:15:57.163Z,20.52
2018-02-10T09:18:31.948Z,24.17
2018-02-10T09:21:17.342Z,20.67
2018-02-10T09:24:03.214Z,27.25
2018-02-10T09:29:24.062Z,27.00
2018-02-10T09:31:54.278Z,30.15
2018-02-10T09:34:23.555Z,26.52
2018-02-10T09:36:56.497Z,32.58
2018-02-10T09:39:30.042Z,28.23
2018-02-10T09:42:01.158Z,27.13
2018-02-10T09:44:45.518Z,28.45
2018-02-10T09:47:16.034Z,28.52
2018-02-10T09:49:44.409Z,30.85
2018-02-10T09:52:20.037Z,40.05
2018-02-10T09:54:47.517Z,34.60
2018-02-10T09:57:16.943Z,37.95
2018-02-10T10:00:05.638Z,38.67
2018-02-10T10:05:27.622Z,36.65
2018-02-10T10:07:55.084Z,36.63
2018-02-10T10:13:35.375Z,41.30
2018-02-10T10:19:22.037Z,39.10
2018-02-10T10:21:49.516Z,41.15
2018-02-10T10:24:16.990Z,37.58
2018-02-10T10:26:45.250Z,44.63
2018-02-10T10:29:19.108Z,38.10
2018-02-10T10:31:47.219Z,41.95
2018-02-10T10:34:27.951Z,39.10
2018-02-10T10:36:55.558Z,56.65
2018-02-10T10:39:23.034Z,56.55
2018-02-10T10:41:51.286Z,50.17
2018-02-10T10:44:18.766Z,52.00
2018-02-10T10:46:46.999Z,55.12
2018-02-10T10:49:14.507Z,58.65
2018-02-10T10:51:42.785Z,56.80
2018-02-10T10:54:23.094Z,66.62
2018-02-10T10:56:52.888Z,43.97
2018-02-10T10:59:22.021Z,51.67
2018-02-10T11:01:49.695Z,71.25
2018-02-10T11:04:22.599Z,63.83
2018-02-10T11:06:51.444Z,54.75
2018-02-10T11:09:19.920Z,60.55
2018-02-10T11:11:47.392Z,62.67
2018-02-10T11:14:14.882Z,58.38
2018-02-10T11:16:43.165Z,65.12
2018-02-10T11:19:10.674Z,68.37
2018-02-10T11:21:38.141Z,63.17
2018-02-10T11:24:05.631Z,49.55
2018-02-10T11:26:34.562Z,60.00
2018-02-10T11:29:02.028Z,49.15
2018-02-10T11:31:30.513Z,54.25
2018-02-10T11:33:58.018Z,48.78
2018-02-10T11:36:26.261Z,36.20
2018-02-10T11:38:53.740Z,39.20
2018-02-10T11:41:25.960Z,40.47
2018-02-10T11:43:53.433Z,39.53
2018-02-10T11:46:20.932Z,46.03
2018-02-10T11:49:00.378Z,48.90
2018-02-10T11:51:28.626Z,48.15
2018-02-10T11:53:56.115Z,38.38
2018-02-10T11:56:24.372Z,44.85
2018-02-10T11:58:52.817Z,46.40
2018-02-10T12:01:30.673Z,43.35
2018-02-10T12:03:59.893Z,49.08
2018-02-10T12:06:27.362Z,46.55
2018-02-10T12:08:54.847Z,43.95
2018-02-10T12:11:23.186Z,42.83
2018-02-10T12:13:50.668Z,35.70
2018-02-10T12:16:18.144Z,39.42
2018-02-10T12:18:45.622Z,35.20
2018-02-10T12:21:13.102Z,38.10
2018-02-10T12:23:41.337Z,39.88
2018-02-10T12:26:08.834Z,39.58
2018-02-10T12:28:37.071Z,40.10
2018-02-10T12:31:04.558Z,41.80
2018-02-10T12:33:32.023Z,38.95
2018-02-10T12:35:59.502Z,37.35
2018-02-10T12:38:43.997Z,39.97
2018-02-10T12:41:12.225Z,36.20
2018-02-10T12:43:39.801Z,42.78
2018-02-10T12:46:07.463Z,35.13
2018-02-10T12:48:41.474Z,41.55
2018-02-10T12:51:09.081Z,34.83
2018-02-10T12:53:36.899Z,43.97
2018-02-10T12:56:04.492Z,39.72
2018-02-10T12:58:32.074Z,37.70
2018-02-10T13:00:59.678Z,44.05
2018-02-10T13:03:27.259Z,40.00
2018-02-10T13:05:54.826Z,44.17
2018-02-10T13:08:22.394Z,29.83
2018-02-10T13:10:49.992Z,34.30
2018-02-10T13:13:18.323Z,37.00
2018-02-10T13:15:46.988Z,40.95
2018-02-10T13:18:14.574Z,42.00
2018-02-10T13:20:42.186Z,46.30
2018-02-10T13:23:10.513Z,43.13
2018-02-10T13:25:38.137Z,44.85
2018-02-10T13:28:05.722Z,41.50
2018-02-10T13:30:33.648Z,34.28
2018-02-10T13:33:01.129Z,36.03
2018-02-10T13:35:29.356Z,33.85
2018-02-10T13:37:56.861Z,30.37
2018-02-10T13:40:24.333Z,36.42
2018-02-10T13:42:51.817Z,38.05
2018-02-10T13:45:19.291Z,32.08
2018-02-10T13:47:46.780Z,26.42
2018-02-10T13:50:15.019Z,30.48
2018-02-10T13:52:42.503Z,31.77
2018-02-10T13:55:10.796Z,33.38
2018-02-10T13:57:39.042Z,32.22
2018-02-10T14:00:06.637Z,42.75
2018-02-10T14:02:34.114Z,34.25
2018-02-10T14:05:01.591Z,34.03
2018-02-10T14:07:29.085Z,34.53
2018-02-10T14:09:56.554Z,31.73
2018-02-10T14:12:24.034Z,29.37
2018-02-10T14:14:52.255Z,27.52
2018-02-10T14:17:19.731Z,31.05
2018-02-10T14:19:47.206Z,27.98
2018-02-10T14:22:14.671Z,27.92
2018-02-10T14:24:42.919Z,28.75
2018-02-10T14:27:10.461Z,26.00
2018-02-10T14:29:37.891Z,27.05
2018-02-10T14:32:05.403Z,26.85
2018-02-10T14:34:32.885Z,25.52
2018-02-10T14:37:01.131Z,22.35
2018-02-10T14:39:28.605Z,26.08
2018-02-10T14:41:56.079Z,34.08
2018-02-10T14:44:24.325Z,38.97
2018-02-10T14:46:51.802Z,39.70
2018-02-10T14:49:19.287Z,33.60
2018-02-10T14:51:46.784Z,32.25
2018-02-10T14:54:14.261Z,30.27
2018-02-10T14:56:41.741Z,31.33
2018-02-10T14:59:10.014Z,33.65
2018-02-10T15:01:38.248Z,26.45
2018-02-10T15:04:05.728Z,26.37
2018-02-10T15:06:33.203Z,27.45
2018-02-10T15:09:00.683Z,25.73
2018-02-10T15:11:30.055Z,25.98
2018-02-10T15:13:58.503Z,22.17
2018-02-10T15:16:25.985Z,20.40
2018-02-10T15:18:53.468Z,22.23
2018-02-10T15:21:20.936Z,21.08
2018-02-10T15:23:51.910Z,25.83
2018-02-10T15:26:25.161Z,24.17
2018-02-10T15:28:53.432Z,29.30
2018-02-10T15:31:25.282Z,32.85
2018-02-10T15:34:07.772Z,28.95
2018-02-10T15:36:45.410Z,27.77
2018-02-10T15:39:13.664Z,24.35
2018-02-10T15:41:41.140Z,28.87
2018-02-10T15:44:09.385Z,25.10
2018-02-10T15:46:36.857Z,22.25
2018-02-10T15:49:04.333Z,23.62
2018-02-10T15:51:32.580Z,20.95
2018-02-10T15:54:00.039Z,24.75
2018-02-10T15:56:27.526Z,20.55
2018-02-10T15:58:55.768Z,22.85
2018-02-10T16:01:23.249Z,21.40
2018-02-10T16:03:50.721Z,19.75
2018-02-10T16:06:18.974Z,20.50
2018-02-10T16:08:46.458Z,22.50
2018-02-10T16:11:14.708Z,16.25
2018-02-10T16:13:42.180Z,18.50
2018-02-10T16:16:09.655Z,17.75
2018-02-10T16:18:37.882Z,19.17
2018-02-10T16:21:05.349Z,23.27
2018-02-10T16:23:32.834Z,22.30
2018-02-10T16:26:01.089Z,18.40
2018-02-10T16:28:28.564Z,20.62
2018-02-10T16:30:56.817Z,20.62
2018-02-10T16:33:24.511Z,23.25
2018-02-10T16:35:53.447Z,24.50
2018-02-10T16:38:20.978Z,21.95
2018-02-10T16:40:49.214Z,19.85
2018-02-10T16:43:16.698Z,21.58
2018-02-10T16:45:44.948Z,26.27
2018-02-10T16:48:12.956Z,23.15
2018-02-10T16:50:40.943Z,24.67
2018-02-10T16:53:08.421Z,23.80
2018-02-10T16:55:35.907Z,20.90
2018-02-10T16:58:03.388Z,16.20
2018-02-10T17:00:57.060Z,21.70
2018-02-10T17:03:25.347Z,23.55
2018-02-10T17:05:53.653Z,22.85
2018-02-10T17:08:21.179Z,19.00
2018-02-10T17:10:49.409Z,17.17
2018-02-10T17:13:17.465Z,20.25
2018-02-10T17:15:45.338Z,17.15
2018-02-10T17:18:12.816Z,19.92
2018-02-10T17:20:40.307Z,20.90
2018-02-10T17:23:08.754Z,15.82
2018-02-10T17:25:36.476Z,17.58
2018-02-10T17:28:03.969Z,22.27
2018-02-10T17:30:38.760Z,23.73
2018-02-10T17:33:06.242Z,24.98
2018-02-10T17:35:34.623Z,20.10
2018-02-10T17:38:02.131Z,23.17
2018-02-10T17:43:47.634Z,29.95
2018-02-10T17:46:15.857Z,25.05
2018-02-10T17:48:43.422Z,21.02
2018-02-10T17:51:10.933Z,24.05
2018-02-10T17:53:39.185Z,24.50
2018-02-10T17:56:06.656Z,21.83
2018-02-10T17:58:43.166Z,18.95
2018-02-10T18:01:16.849Z,21.65
2018-02-10T18:03:51.881Z,19.27
2018-02-10T18:12:15.020Z,17.85
2018-02-10T18:14:46.981Z,18.40
2018-02-10T18:17:21.531Z,22.95
2018-02-10T18:19:49.035Z,31.85
2018-02-10T18:22:19.903Z,21.48
2018-02-10T18:24:50.507Z,21.15
2018-02-10T18:27:18.748Z,23.42
2018-02-10T18:29:50.402Z,27.40
2018-02-10T18:32:19.865Z,29.83
2018-02-10T18:34:48.239Z,22.77
2018-02-10T18:37:22.903Z,23.85
2018-02-10T18:39:51.232Z,28.38
2018-02-10T18:42:18.751Z,25.40
2018-02-10T18:44:46.230Z,21.25
2018-02-10T18:47:20.182Z,28.27
2018-02-10T18:49:48.713Z,26.52
2018-02-10T18:52:16.973Z,27.48
2018-02-10T18:54:48.034Z,27.65
2018-02-10T18:57:16.283Z,22.27
2018-02-10T18:59:43.770Z,34.33
2018-02-10T19:02:12.022Z,22.17
2018-02-10T19:04:39.556Z,28.15
2018-02-10T19:07:07.048Z,26.45
2018-02-10T19:09:34.688Z,27.95
2018-02-10T19:12:02.296Z,29.10
2018-02-10T19:14:55.557Z,32.92
2018-02-10T19:17:23.806Z,30.80
2018-02-10T19:19:57.847Z,25.25
2018-02-10T19:22:25.338Z,26.40
2018-02-10T19:24:52.836Z,30.37
2018-02-10T19:27:20.301Z,37.53
2018-02-10T19:29:47.791Z,26.90
2018-02-10T19:32:16.022Z,36.70
2018-02-10T19:34:43.519Z,34.20
2018-02-10T19:37:11.774Z,30.25
2018-02-10T19:39:39.323Z,33.28
2018-02-10T19:42:06.803Z,30.50
2018-02-10T19:44:35.033Z,28.70
2018-02-10T19:47:02.515Z,30.88
2018-02-10T19:49:30.005Z,31.20
2018-02-10T19:51:58.244Z,33.90
2018-02-10T19:54:25.718Z,35.53
2018-02-10T19:56:53.239Z,29.00
2018-02-10T19:59:20.728Z,31.70
2018-02-10T20:01:48.197Z,34.33
2018-02-10T20:04:16.441Z,26.80
2018-02-10T20:06:43.928Z,25.52
2018-02-10T20:09:11.421Z,26.55
2018-02-10T20:11:38.929Z,30.65
2018-02-10T20:14:06.550Z,23.83
2018-02-10T20:16:34.122Z,28.35
2018-02-10T20:19:11.992Z,25.75
2018-02-10T20:21:40.258Z,23.95
2018-02-10T20:24:08.502Z,28.50
2018-02-10T20:26:36.187Z,25.27
2018-02-10T20:29:03.978Z,27.40
2018-02-10T20:31:31.470Z,25.00
2018-02-10T20:33:59.261Z,25.20
2018-02-10T20:36:26.795Z,30.52
2018-02-10T20:38:57.798Z,34.85
2018-02-10T20:41:25.357Z,31.15
2018-02-10T20:43:53.607Z,28.15
2018-02-10T20:46:21.141Z,33.30
2018-02-10T20:48:48.637Z,37.33
2018-02-10T20:51:16.868Z,33.30
2018-02-10T20:53:44.352Z,29.45
2018-02-10T20:56:11.837Z,27.90
2018-02-10T20:58:40.063Z,28.35
2018-02-10T21:01:07.540Z,33.03
2018-02-10T21:03:35.013Z,29.83
2018-02-10T21:06:02.486Z,26.02
2018-02-10T21:08:30.744Z,31.67
2018-02-10T21:10:58.245Z,34.58
2018-02-10T21:13:25.725Z,33.55
2018-02-10T21:15:53.190Z,30.00
2018-02-10T21:18:20.662Z,30.15
2018-02-10T21:20:48.375Z,31.65
2018-02-10T21:23:15.834Z,30.40
2018-02-10T21:25:43.353Z,29.58
2018-02-10T21:28:10.942Z,35.53
2018-02-10T21:30:39.175Z,31.45
2018-02-10T21:33:06.661Z,33.25
2018-02-10T21:35:34.938Z,26.85
2018-02-10T21:38:03.196Z,32.40
2018-02-10T21:40:30.685Z,31.33
2018-02-10T21:42:58.940Z,31.70
2018-02-10T21:45:26.465Z,29.77
2018-02-10T21:47:53.928Z,29.58
2018-02-10T21:50:21.397Z,35.57
2018-02-10T21:52:48.863Z,31.58
2018-02-10T21:55:16.343Z,36.50
2018-02-10T21:57:44.570Z,34.97
2018-02-10T22:00:12.032Z,27.92
2018-02-10T22:02:39.518Z,34.25
2018-02-10T22:05:06.985Z,28.98
2018-02-10T22:07:50.885Z,32.78
2018-02-10T22:16:19.932Z,36.42
2018-02-10T22:18:47.406Z,31.23
2018-02-10T22:21:14.890Z,29.83
2018-02-10T22:23:43.119Z,31.87
2018-02-10T22:26:16.475Z,30.70
2018-02-10T22:28:48.251Z,28.70
2018-02-10T22:31:19.142Z,24.58
2018-02-10T22:33:49.620Z,24.08
2018-02-10T22:36:29.982Z,32.05
2018-02-10T22:38:57.440Z,28.95
2018-02-10T22:41:24.909Z,38.63
2018-02-10T22:43:52.382Z,35.20
2018-02-10T22:46:19.859Z,25.63
2018-02-10T22:48:47.340Z,30.77
2018-02-10T22:51:15.581Z,28.15
2018-02-10T22:53:43.049Z,32.88
2018-02-10T22:56:10.514Z,36.05
2018-02-10T22:58:37.999Z,30.62
2018-02-10T23:01:11.982Z,28.55
2018-02-10T23:03:39.469Z,31.48
2018-02-10T23:06:07.703Z,32.53
2018-02-10T23:08:35.203Z,26.15
2018-02-10T23:11:03.446Z,28.40
2018-02-10T23:13:30.918Z,26.87
2018-02-10T23:15:58.391Z,22.73
2018-02-10T23:18:26.635Z,22.15
2018-02-10T23:20:54.097Z,22.17
2018-02-10T23:23:21.584Z,21.70
2018-02-10T23:25:49.827Z,24.17
2018-02-10T23:28:17.315Z,25.27
2018-02-10T23:30:46.047Z,25.42
2018-02-10T23:33:14.017Z,21.05
2018-02-10T23:35:41.470Z,26.73
2018-02-10T23:38:08.954Z,26.75
2018-02-10T23:40:36.417Z,25.83
2018-02-10T23:43:03.913Z,26.95
2018-02-10T23:45:32.152Z,32.17
2018-02-10T23:47:59.601Z,26.50
2018-02-10T23:50:27.088Z,26.62
2018-02-10T23:52:55.325Z,27.95
2018-02-10T23:55:22.802Z,26.98
2018-02-10T23:57:50.280Z,23.60
